Terminal Aerodrome Forecast
Issued by NWS

Home | Current Version | Previous Version | Text Only | Print | Product List | Glossary On
Versions: 1 2 3 4 5 6 7 8 9 10 11 12 13 14 15 16 17
000
FTAK31 PANC 182337
TAFADU
TAF
PADU 182337Z 1900/1924 14015G25KT P6SM BKN080
     FM190300 15020G30KT P6SM BKN050 WS020/18050KT
     FM190800 15020G30KT P6SM VCSH SCT015 OVC025 WS020/19060KT
     FM191500 14012G20KT 5SM -RA BR OVC010 WS020/20050KT
     FM191800 20011KT 5SM BR OVC007
     FM192200 20008KT P6SM SCT025 BKN035=

USA.gov is the U.S. government's official web portal to all federal, state and local government web resources and services.